Terminal Aerodrome Forecast
Issued by NWS

Current Version | Previous Version | Text Only | Print | Product List | Glossary On
Versions: 1 2 3 4 5 6 7 8 9 10 11 12 13 14 15
000
FTUS43 KMQT 302336
TAFCMX
TAF
KCMX 302336Z 3100/3124 28012KT P6SM BKN080
     FM310400 28010KT P6SM VCSH BKN060
     FM310700 28010KT P6SM BKN070
     FM311200 29017G24KT P6SM BKN070=

USA.gov is the U.S. government's official web portal to all federal, state and local government web resources and services.